createdAt,value
2019-03-22T00:01:17.278Z,11.73
2019-03-22T00:03:49.170Z,11.17
2019-03-22T00:06:20.751Z,7.10
2019-03-22T00:08:51.687Z,9.93
2019-03-22T00:11:23.281Z,8.83
2019-03-22T00:13:54.539Z,10.60
2019-03-22T00:16:25.683Z,8.13
2019-03-22T00:18:56.929Z,8.10
2019-03-22T00:21:27.755Z,11.97
2019-03-22T00:23:57.963Z,8.47
2019-03-22T00:26:27.985Z,9.57
2019-03-22T00:28:58.098Z,7.53
2019-03-22T00:31:28.077Z,6.90
2019-03-22T00:33:58.114Z,16.53
2019-03-22T00:36:28.215Z,9.67
2019-03-22T00:38:58.120Z,10.97
2019-03-22T00:41:28.062Z,12.53
2019-03-22T00:43:57.961Z,17.70
2019-03-22T00:46:27.889Z,18.17
2019-03-22T00:48:57.812Z,11.23
2019-03-22T00:51:27.941Z,14.77
2019-03-22T00:53:57.941Z,18.07
2019-03-22T00:56:28.177Z,16.57
2019-03-22T00:58:58.329Z,9.33
2019-03-22T01:01:28.387Z,20.30
2019-03-22T01:03:58.352Z,20.00
2019-03-22T01:06:28.538Z,10.33
2019-03-22T01:08:58.773Z,12.57
2019-03-22T01:11:28.695Z,10.87
2019-03-22T01:13:58.709Z,8.80
2019-03-22T01:16:28.737Z,9.70
2019-03-22T01:18:58.652Z,17.63
2019-03-22T01:21:28.673Z,11.63
2019-03-22T01:23:59.930Z,10.77
2019-03-22T01:26:30.156Z,14.13
2019-03-22T01:29:00.240Z,13.90
2019-03-22T01:31:30.252Z,17.90
2019-03-22T01:34:00.411Z,13.80
2019-03-22T01:36:30.388Z,19.87
2019-03-22T01:39:00.354Z,23.20
2019-03-22T01:41:30.281Z,27.80
2019-03-22T01:44:00.347Z,22.57
2019-03-22T01:46:30.561Z,27.03
2019-03-22T01:49:00.580Z,43.40
2019-03-22T01:51:30.920Z,36.67
2019-03-22T01:54:01.026Z,30.93
2019-03-22T01:56:30.983Z,15.67
2019-03-22T01:59:01.040Z,15.90
2019-03-22T02:01:30.988Z,27.60
2019-03-22T02:04:01.061Z,12.50
2019-03-22T02:06:31.118Z,15.40
2019-03-22T02:09:01.140Z,11.93
2019-03-22T02:11:31.255Z,10.37
2019-03-22T02:14:01.422Z,15.43
2019-03-22T02:16:31.393Z,10.87
2019-03-22T02:19:01.425Z,12.93
2019-03-22T02:21:31.583Z,12.80
2019-03-22T02:24:01.764Z,12.37
2019-03-22T02:26:31.668Z,24.80
2019-03-22T02:29:01.602Z,7.83
2019-03-22T02:31:31.603Z,9.53
2019-03-22T02:34:01.548Z,12.30
2019-03-22T02:36:31.631Z,12.50
2019-03-22T02:39:01.583Z,9.20
2019-03-22T02:41:31.493Z,12.40
2019-03-22T02:44:01.405Z,9.93
2019-03-22T02:46:31.620Z,13.40
2019-03-22T02:49:01.539Z,8.43
2019-03-22T02:51:31.555Z,12.40
2019-03-22T02:54:01.454Z,8.17
2019-03-22T02:56:31.609Z,10.83
2019-03-22T02:59:01.692Z,12.30
2019-03-22T03:01:31.909Z,5.80
2019-03-22T03:04:01.935Z,6.50
2019-03-22T03:06:32.039Z,8.60
2019-03-22T03:09:01.961Z,8.60
2019-03-22T03:11:32.066Z,9.60
2019-03-22T03:14:02.227Z,8.87
2019-03-22T03:16:32.145Z,13.80
2019-03-22T03:19:02.124Z,13.20
2019-03-22T03:21:32.054Z,11.00
2019-03-22T03:24:02.023Z,11.37
2019-03-22T03:26:31.988Z,18.93
2019-03-22T03:29:01.897Z,15.60
2019-03-22T03:31:31.925Z,13.00
2019-03-22T03:34:01.939Z,9.07
2019-03-22T03:36:34.786Z,11.47
2019-03-22T03:39:03.898Z,14.43
2019-03-22T03:41:33.850Z,8.57
2019-03-22T03:44:03.961Z,12.57
2019-03-22T03:46:33.896Z,9.97
2019-03-22T03:49:03.843Z,11.43
2019-03-22T03:51:33.926Z,9.50
2019-03-22T03:54:04.050Z,16.43
2019-03-22T03:56:34.195Z,10.00
2019-03-22T03:59:04.258Z,13.50
2019-03-22T04:01:34.204Z,9.20
2019-03-22T04:04:04.113Z,9.20
2019-03-22T04:06:34.268Z,6.63
2019-03-22T04:09:05.621Z,15.93
2019-03-22T04:11:35.534Z,9.47
2019-03-22T04:14:05.916Z,12.83
2019-03-22T04:16:36.067Z,6.90
2019-03-22T04:19:06.181Z,25.33
2019-03-22T04:21:36.166Z,10.20
2019-03-22T04:24:06.219Z,8.50
2019-03-22T04:26:36.225Z,10.40
2019-03-22T04:29:08.121Z,8.33
2019-03-22T04:31:38.075Z,11.57
2019-03-22T04:34:08.015Z,5.70
2019-03-22T04:36:37.929Z,20.33
2019-03-22T04:39:09.068Z,6.08
2019-03-22T04:41:39.045Z,13.47
2019-03-22T04:44:09.118Z,6.23
2019-03-22T04:46:41.045Z,9.97
2019-03-22T04:49:12.676Z,7.50
2019-03-22T04:51:42.963Z,8.03
2019-03-22T04:54:15.130Z,11.27
2019-03-22T04:56:46.855Z,8.08
2019-03-22T04:59:19.448Z,10.63
2019-03-22T05:01:52.748Z,6.83
2019-03-22T05:04:25.292Z,7.58
2019-03-22T05:06:56.620Z,10.67
2019-03-22T05:09:30.095Z,11.67
2019-03-22T05:12:03.259Z,11.00
2019-03-22T05:14:36.470Z,6.03
2019-03-22T05:17:08.491Z,10.13
2019-03-22T05:19:41.482Z,10.27
2019-03-22T05:22:13.641Z,9.37
2019-03-22T05:24:46.374Z,13.00
2019-03-22T05:27:17.678Z,20.70
2019-03-22T05:29:49.235Z,9.63
2019-03-22T05:32:19.717Z,8.93
2019-03-22T05:34:49.825Z,14.53
2019-03-22T05:37:19.832Z,14.40
2019-03-22T05:39:49.777Z,27.00
2019-03-22T05:42:19.846Z,11.80
2019-03-22T05:44:49.867Z,12.70
2019-03-22T05:47:19.871Z,8.40
2019-03-22T05:49:49.928Z,12.63
2019-03-22T05:52:19.952Z,9.18
2019-03-22T05:54:49.878Z,13.30
2019-03-22T05:57:19.881Z,15.90
2019-03-22T05:59:49.861Z,15.73
2019-03-22T06:02:19.808Z,26.87
2019-03-22T06:04:49.727Z,26.20
2019-03-22T06:07:19.775Z,14.63
2019-03-22T06:09:49.932Z,19.60
2019-03-22T06:12:19.945Z,17.37
2019-03-22T06:14:50.002Z,28.63
2019-03-22T06:17:28.104Z,14.85
2019-03-22T06:19:58.333Z,11.17
2019-03-22T06:22:28.315Z,21.87
2019-03-22T06:24:58.350Z,12.03
2019-03-22T06:27:28.438Z,10.75
2019-03-22T06:29:58.382Z,16.57
2019-03-22T06:32:28.397Z,12.70
2019-03-22T06:34:58.502Z,20.80
2019-03-22T06:37:28.417Z,15.67
2019-03-22T06:39:58.357Z,23.90
2019-03-22T06:42:28.322Z,14.00
2019-03-22T06:44:58.281Z,10.73
2019-03-22T06:47:28.512Z,10.77
2019-03-22T06:49:58.586Z,13.50
2019-03-22T06:52:28.667Z,14.57
2019-03-22T06:54:58.647Z,20.30
2019-03-22T06:57:28.683Z,16.83
2019-03-22T07:00:06.461Z,13.60
2019-03-22T07:02:30.644Z,15.10
2019-03-22T07:05:00.599Z,30.17
2019-03-22T07:07:30.515Z,38.43
2019-03-22T07:10:00.561Z,11.83
2019-03-22T07:12:30.461Z,13.70
2019-03-22T07:15:00.909Z,22.17
2019-03-22T07:17:31.387Z,11.57
2019-03-22T07:20:01.287Z,14.53
2019-03-22T07:22:31.345Z,10.73
2019-03-22T07:25:01.330Z,26.70
2019-03-22T07:27:31.362Z,18.90
2019-03-22T07:30:01.548Z,19.03
2019-03-22T07:32:31.522Z,17.27
2019-03-22T07:35:01.614Z,14.60
2019-03-22T07:37:31.563Z,21.50
2019-03-22T07:40:01.670Z,16.33
2019-03-22T07:42:31.999Z,14.17
2019-03-22T07:45:02.417Z,15.50
2019-03-22T07:47:32.436Z,20.00
2019-03-22T07:50:02.500Z,23.43
2019-03-22T07:52:32.420Z,19.90
2019-03-22T07:55:02.432Z,21.30
2019-03-22T07:57:33.504Z,19.43
2019-03-22T08:00:03.530Z,12.37
2019-03-22T08:02:33.731Z,23.40
2019-03-22T08:05:03.889Z,13.90
2019-03-22T08:07:33.895Z,20.67
2019-03-22T08:10:04.565Z,14.13
2019-03-22T08:12:34.518Z,13.90
2019-03-22T08:15:04.834Z,20.20
2019-03-22T08:17:34.923Z,22.40
2019-03-22T08:20:05.573Z,17.23
2019-03-22T08:22:35.499Z,13.40
2019-03-22T08:25:05.827Z,20.23
2019-03-22T08:27:35.801Z,15.40
2019-03-22T08:30:06.900Z,23.20
2019-03-22T08:32:36.939Z,17.60
2019-03-22T08:35:06.911Z,18.13
2019-03-22T08:37:36.926Z,20.07
2019-03-22T08:40:07.442Z,35.07
2019-03-22T08:42:37.449Z,16.70
2019-03-22T08:45:07.534Z,31.87
2019-03-22T08:47:37.449Z,20.93
2019-03-22T08:50:08.234Z,15.20
2019-03-22T08:52:38.200Z,16.27
2019-03-22T08:55:08.811Z,20.33
2019-03-22T08:57:38.694Z,16.73
2019-03-22T09:00:09.913Z,15.27
2019-03-22T09:02:40.070Z,13.87
2019-03-22T09:05:09.955Z,13.90
2019-03-22T09:07:40.000Z,15.13
2019-03-22T09:10:11.128Z,15.60
2019-03-22T09:12:41.102Z,22.20
2019-03-22T09:15:11.795Z,18.63
2019-03-22T09:17:41.993Z,11.73
2019-03-22T09:20:12.573Z,18.13
2019-03-22T09:22:42.596Z,20.80
2019-03-22T09:25:12.660Z,29.80
2019-03-22T09:27:42.670Z,15.37
2019-03-22T09:30:14.340Z,14.57
2019-03-22T09:32:44.417Z,15.80
2019-03-22T09:35:14.393Z,20.00
2019-03-22T09:37:44.277Z,13.47
2019-03-22T09:40:14.744Z,8.63
2019-03-22T09:42:44.649Z,19.50
2019-03-22T09:45:14.789Z,14.87
2019-03-22T09:47:44.747Z,13.00
2019-03-22T09:50:15.748Z,11.33
2019-03-22T09:52:45.834Z,8.37
2019-03-22T09:55:15.716Z,12.37
2019-03-22T09:57:45.731Z,19.80
2019-03-22T10:00:28.295Z,20.40
2019-03-22T10:02:58.387Z,10.13
2019-03-22T10:05:28.365Z,23.53
2019-03-22T10:07:58.384Z,11.90
2019-03-22T10:10:28.968Z,21.00
2019-03-22T10:12:59.278Z,15.03
2019-03-22T10:15:29.243Z,13.97
2019-03-22T10:17:59.221Z,10.83
2019-03-22T10:20:29.219Z,12.80
2019-03-22T10:22:59.239Z,13.23
2019-03-22T10:25:29.163Z,13.93
2019-03-22T10:27:59.156Z,9.47
2019-03-22T10:30:29.461Z,21.37
2019-03-22T10:33:00.355Z,11.87
2019-03-22T10:35:30.337Z,14.70
2019-03-22T10:38:01.216Z,13.53
2019-03-22T10:40:33.172Z,12.43
2019-03-22T10:43:03.170Z,12.63
2019-03-22T10:45:33.292Z,11.07
2019-03-22T10:48:03.279Z,27.23
2019-03-22T10:50:33.234Z,12.07
2019-03-22T10:53:03.227Z,13.30
2019-03-22T10:55:35.566Z,10.57
2019-03-22T10:58:19.887Z,8.93
2019-03-22T11:00:37.074Z,16.20
2019-03-22T11:03:06.984Z,7.10
2019-03-22T11:05:37.126Z,7.17
2019-03-22T11:08:07.045Z,12.37
2019-03-22T11:10:37.132Z,7.77
2019-03-22T11:13:07.279Z,8.20
2019-03-22T11:15:37.266Z,8.20
2019-03-22T11:18:07.431Z,14.80
2019-03-22T11:20:37.390Z,12.10
2019-03-22T11:23:07.422Z,5.80
2019-03-22T11:25:37.738Z,7.13
2019-03-22T11:28:07.675Z,8.07
2019-03-22T11:30:37.599Z,4.93
2019-03-22T11:33:07.787Z,2.80
2019-03-22T11:35:37.940Z,3.33
2019-03-22T11:38:07.962Z,7.20
2019-03-22T11:40:37.897Z,6.23
2019-03-22T11:43:08.798Z,6.60
2019-03-22T11:45:39.141Z,7.30
2019-03-22T11:48:09.138Z,4.50
2019-03-22T11:50:39.128Z,11.00
2019-03-22T11:53:09.795Z,5.77
2019-03-22T11:55:40.465Z,4.03
2019-03-22T11:58:11.044Z,5.90
2019-03-22T12:00:41.524Z,4.03
2019-03-22T12:03:12.265Z,5.57
2019-03-22T12:05:42.799Z,4.30
2019-03-22T12:08:13.383Z,5.97
2019-03-22T12:10:44.831Z,4.03
2019-03-22T12:13:15.490Z,4.47
2019-03-22T12:15:45.970Z,9.77
2019-03-22T12:18:16.574Z,15.43
2019-03-22T12:20:47.256Z,6.37
2019-03-22T12:23:18.021Z,2.80
2019-03-22T12:25:48.713Z,4.90
2019-03-22T12:28:19.243Z,5.60
2019-03-22T12:30:49.958Z,10.50
2019-03-22T12:33:20.416Z,4.83
2019-03-22T12:35:51.389Z,4.30
2019-03-22T12:38:21.872Z,2.20
2019-03-22T12:40:52.493Z,3.27
2019-03-22T12:43:23.263Z,9.40
2019-03-22T12:45:53.781Z,4.50
2019-03-22T12:48:23.795Z,4.97
2019-03-22T12:50:53.717Z,2.40
2019-03-22T12:53:23.688Z,9.47
2019-03-22T12:55:54.137Z,4.43
2019-03-22T12:58:24.060Z,4.13
2019-03-22T13:00:54.026Z,2.30
2019-03-22T13:03:24.463Z,2.30
2019-03-22T13:05:54.959Z,3.00
2019-03-22T13:08:24.875Z,10.33
2019-03-22T13:10:55.221Z,6.30
2019-03-22T13:13:25.316Z,2.20
2019-03-22T13:15:55.581Z,1.67
2019-03-22T13:18:25.650Z,3.27
2019-03-22T13:20:55.873Z,8.87
2019-03-22T13:23:25.805Z,3.30
2019-03-22T13:25:55.731Z,2.77
2019-03-22T13:28:25.839Z,3.13
2019-03-22T13:30:55.931Z,11.03
2019-03-22T13:33:25.992Z,6.03
2019-03-22T13:35:55.892Z,3.53
2019-03-22T13:38:25.929Z,2.40
2019-03-22T13:40:55.853Z,3.93
2019-03-22T13:43:25.776Z,1.57
2019-03-22T13:45:55.690Z,1.90
2019-03-22T13:48:25.803Z,2.60
2019-03-22T13:50:55.903Z,5.77
2019-03-22T13:53:25.850Z,4.70
2019-03-22T13:55:55.932Z,1.70
2019-03-22T13:58:25.860Z,1.27
2019-03-22T14:00:55.981Z,10.53
2019-03-22T14:03:26.276Z,3.27
2019-03-22T14:05:56.262Z,3.67
2019-03-22T14:08:27.106Z,2.60
2019-03-22T14:10:57.032Z,5.20
2019-03-22T14:13:27.047Z,3.20
2019-03-22T14:15:56.986Z,1.57
2019-03-22T14:18:27.012Z,2.27
2019-03-22T14:20:57.026Z,4.53
2019-03-22T14:23:27.103Z,3.80
2019-03-22T14:25:57.170Z,3.13
2019-03-22T14:28:27.260Z,1.30
2019-03-22T14:30:57.230Z,1.30
2019-03-22T14:33:27.221Z,2.30
2019-03-22T14:35:57.250Z,2.00
2019-03-22T14:38:27.627Z,4.23
2019-03-22T14:40:57.701Z,3.20
2019-03-22T14:43:27.764Z,7.50
2019-03-22T14:45:57.836Z,2.60
2019-03-22T14:48:28.130Z,6.83
2019-03-22T14:50:58.057Z,5.17
2019-03-22T14:53:28.135Z,2.20
2019-03-22T14:55:58.266Z,2.30
2019-03-22T14:58:28.221Z,7.93
2019-03-22T15:00:58.330Z,3.30
2019-03-22T15:03:28.737Z,2.10
2019-03-22T15:05:58.782Z,10.00
2019-03-22T15:08:29.300Z,2.33
2019-03-22T15:10:59.294Z,3.03
2019-03-22T15:13:38.492Z,2.87
2019-03-22T15:16:36.642Z,3.70
2019-03-22T15:19:28.828Z,5.40
2019-03-22T15:22:16.634Z,2.50
2019-03-22T15:25:04.144Z,1.87
2019-03-22T15:28:08.195Z,1.63
2019-03-22T15:31:09.303Z,2.23
2019-03-22T15:34:00.963Z,1.27
2019-03-22T15:36:45.687Z,4.33
2019-03-22T15:39:30.427Z,5.83
2019-03-22T15:42:00.602Z,2.97
2019-03-22T15:44:30.530Z,3.13
2019-03-22T15:47:00.509Z,2.63
2019-03-22T15:49:30.454Z,2.17
2019-03-22T15:52:00.547Z,9.50
2019-03-22T15:54:30.708Z,1.93
2019-03-22T15:57:00.630Z,1.43
2019-03-22T15:59:30.645Z,2.70
2019-03-22T16:02:00.813Z,1.30
2019-03-22T16:04:30.929Z,2.73
2019-03-22T16:07:01.067Z,5.80
2019-03-22T16:09:31.204Z,8.03
2019-03-22T16:12:01.263Z,3.73
2019-03-22T16:14:31.228Z,5.10
2019-03-22T16:17:01.373Z,15.00
2019-03-22T16:19:31.449Z,4.13
2019-03-22T16:22:01.602Z,3.13
2019-03-22T16:24:31.531Z,3.90
2019-03-22T16:27:01.862Z,4.43
2019-03-22T16:29:31.904Z,19.33
2019-03-22T16:32:01.848Z,4.57
2019-03-22T16:34:31.967Z,2.53
2019-03-22T16:37:01.953Z,2.00
2019-03-22T16:39:31.905Z,6.93
2019-03-22T16:42:02.223Z,5.23
2019-03-22T16:44:32.479Z,5.90
2019-03-22T16:47:02.480Z,2.53
2019-03-22T16:49:32.632Z,7.50
2019-03-22T16:52:02.587Z,9.00
2019-03-22T16:54:32.729Z,3.03
2019-03-22T16:57:02.714Z,7.97
2019-03-22T16:59:32.651Z,9.70
2019-03-22T17:02:03.113Z,9.03
2019-03-22T17:04:33.319Z,11.33
2019-03-22T17:07:03.324Z,9.53
2019-03-22T17:09:33.279Z,4.83
2019-03-22T17:12:03.239Z,5.53
2019-03-22T17:14:33.143Z,3.17
2019-03-22T17:17:03.103Z,3.57
2019-03-22T17:19:33.027Z,11.53
2019-03-22T17:22:03.131Z,5.80
2019-03-22T17:24:33.478Z,2.90
2019-03-22T17:27:03.670Z,3.10
2019-03-22T17:29:33.611Z,14.60
2019-03-22T17:32:03.611Z,2.73
2019-03-22T17:34:33.651Z,13.23
2019-03-22T17:37:03.760Z,5.60
2019-03-22T17:39:33.852Z,6.60
2019-03-22T17:42:03.999Z,4.17
2019-03-22T17:44:34.188Z,3.90
2019-03-22T17:47:06.692Z,4.90
2019-03-22T17:49:36.811Z,7.20
2019-03-22T17:52:06.749Z,6.63
2019-03-22T17:54:36.747Z,6.73
2019-03-22T17:57:06.818Z,6.67
2019-03-22T17:59:36.760Z,4.77
2019-03-22T18:02:06.788Z,7.37
2019-03-22T18:04:36.733Z,6.43
2019-03-22T18:07:06.625Z,6.60
2019-03-22T18:09:36.656Z,8.30
2019-03-22T18:12:06.761Z,6.43
2019-03-22T18:14:36.814Z,5.13
2019-03-22T18:17:06.775Z,5.83
2019-03-22T18:19:36.740Z,10.63
2019-03-22T18:22:06.785Z,11.53
2019-03-22T18:24:36.858Z,6.37
2019-03-22T18:27:06.908Z,11.80
2019-03-22T18:29:36.994Z,6.80
2019-03-22T18:32:07.167Z,13.90
2019-03-22T18:34:37.620Z,5.57
2019-03-22T18:37:07.665Z,4.70
2019-03-22T18:39:37.768Z,6.77
2019-03-22T18:42:07.827Z,9.57
2019-03-22T18:44:37.907Z,7.73
2019-03-22T18:47:07.944Z,6.80
2019-03-22T18:49:37.945Z,10.63
2019-03-22T18:52:08.348Z,7.87
2019-03-22T18:54:38.540Z,5.53
2019-03-22T18:57:08.440Z,7.20
2019-03-22T18:59:38.555Z,6.80
2019-03-22T19:02:08.552Z,8.17
2019-03-22T19:04:44.008Z,12.37
2019-03-22T19:07:10.670Z,11.70
2019-03-22T19:09:40.760Z,8.93
2019-03-22T19:12:10.677Z,6.90
2019-03-22T19:14:40.723Z,10.30
2019-03-22T19:17:10.720Z,11.50
2019-03-22T19:19:40.651Z,18.80
2019-03-22T19:22:10.666Z,11.97
2019-03-22T19:24:40.841Z,11.20
2019-03-22T19:27:10.784Z,5.40
2019-03-22T19:29:40.783Z,5.00
2019-03-22T19:32:13.829Z,10.13
2019-03-22T19:34:42.705Z,9.23
2019-03-22T19:37:13.400Z,12.73
2019-03-22T19:39:43.537Z,9.33
2019-03-22T19:42:13.468Z,5.90
2019-03-22T19:44:43.612Z,9.50
2019-03-22T19:47:13.640Z,11.67
2019-03-22T19:49:43.582Z,12.50
2019-03-22T19:52:13.709Z,17.60
2019-03-22T19:54:43.866Z,11.27
2019-03-22T19:57:13.867Z,11.23
2019-03-22T19:59:43.791Z,7.90
2019-03-22T20:02:13.708Z,8.90
2019-03-22T20:04:43.717Z,21.93
2019-03-22T20:07:13.825Z,15.43
2019-03-22T20:09:44.222Z,14.93
2019-03-22T20:12:14.192Z,11.13
2019-03-22T20:14:44.245Z,6.70
2019-03-22T20:17:14.419Z,6.40
2019-03-22T20:19:44.336Z,8.30
2019-03-22T20:22:14.290Z,11.97
2019-03-22T20:24:44.387Z,21.33
2019-03-22T20:27:14.383Z,14.63
2019-03-22T20:29:44.505Z,32.03
2019-03-22T20:32:14.710Z,14.80
2019-03-22T20:34:44.713Z,12.73
2019-03-22T20:37:14.858Z,13.53
2019-03-22T20:39:44.898Z,8.50
2019-03-22T20:42:14.945Z,7.17
2019-03-22T20:44:44.991Z,16.20
2019-03-22T20:47:15.183Z,10.93
2019-03-22T20:49:45.233Z,12.17
2019-03-22T20:52:15.452Z,13.37
2019-03-22T20:54:45.525Z,10.33
2019-03-22T20:57:15.584Z,10.23
2019-03-22T20:59:45.581Z,14.73
2019-03-22T21:02:15.616Z,8.87
2019-03-22T21:04:45.647Z,12.63
2019-03-22T21:07:15.694Z,8.37
2019-03-22T21:09:45.919Z,13.97
2019-03-22T21:12:17.140Z,27.43
2019-03-22T21:14:47.231Z,17.60
2019-03-22T21:17:17.201Z,17.43
2019-03-22T21:19:47.382Z,11.77
2019-03-22T21:22:17.350Z,11.30
2019-03-22T21:24:47.837Z,12.90
2019-03-22T21:27:17.900Z,9.73
2019-03-22T21:29:47.993Z,13.07
2019-03-22T21:32:18.032Z,11.47
2019-03-22T21:34:48.211Z,13.40
2019-03-22T21:37:18.320Z,9.33
2019-03-22T21:39:48.423Z,12.20
2019-03-22T21:42:18.714Z,14.37
2019-03-22T21:44:48.622Z,8.50
2019-03-22T21:47:18.624Z,15.07
2019-03-22T21:49:48.581Z,12.53
2019-03-22T21:52:18.482Z,10.67
2019-03-22T21:54:49.916Z,19.33
2019-03-22T21:57:19.924Z,11.07
2019-03-22T21:59:50.041Z,10.67
2019-03-22T22:02:20.080Z,20.03
2019-03-22T22:04:50.040Z,11.23
2019-03-22T22:07:19.972Z,10.73
2019-03-22T22:09:49.983Z,13.03
2019-03-22T22:12:20.010Z,21.70
2019-03-22T22:14:50.071Z,20.37
2019-03-22T22:17:20.173Z,9.43
2019-03-22T22:19:50.138Z,11.03
2019-03-22T22:22:20.235Z,19.30
2019-03-22T22:24:50.222Z,11.17
2019-03-22T22:27:20.283Z,11.70
2019-03-22T22:29:50.346Z,15.03
2019-03-22T22:32:20.306Z,19.83
2019-03-22T22:34:50.313Z,13.50
2019-03-22T22:37:20.409Z,13.23
2019-03-22T22:39:50.358Z,13.63
2019-03-22T22:42:20.273Z,7.93
2019-03-22T22:44:50.400Z,10.17
2019-03-22T22:47:20.683Z,11.50
2019-03-22T22:49:50.763Z,15.80
2019-03-22T22:52:20.866Z,13.57
2019-03-22T22:54:50.777Z,20.27
2019-03-22T22:57:20.806Z,10.03
2019-03-22T22:59:50.780Z,16.83
2019-03-22T23:02:20.834Z,20.90
2019-03-22T23:04:50.732Z,32.10
2019-03-22T23:07:20.654Z,20.87
2019-03-22T23:09:50.692Z,16.47
2019-03-22T23:12:20.766Z,13.13
2019-03-22T23:14:50.682Z,12.40
2019-03-22T23:17:20.794Z,12.17
2019-03-22T23:19:51.037Z,15.43
2019-03-22T23:22:21.064Z,12.83
2019-03-22T23:24:51.163Z,35.53
2019-03-22T23:27:21.216Z,22.10
2019-03-22T23:29:51.133Z,23.13
2019-03-22T23:32:21.419Z,14.63
2019-03-22T23:34:59.038Z,38.33
2019-03-22T23:37:23.395Z,17.23
2019-03-22T23:39:53.303Z,9.17
2019-03-22T23:42:23.226Z,12.80
2019-03-22T23:44:53.192Z,17.00
2019-03-22T23:47:23.085Z,16.80
2019-03-22T23:49:53.003Z,10.40
2019-03-22T23:52:23.296Z,18.63
2019-03-22T23:54:53.363Z,28.67
2019-03-22T23:57:23.268Z,10.80
2019-03-22T23:59:53.483Z,10.73
